createdAt,value
2023-01-08T00:01:35.399Z,95109.00
2023-01-08T00:04:03.373Z,95106.56
2023-01-08T00:06:31.211Z,95103.47
2023-01-08T00:09:01.410Z,95102.88
2023-01-08T00:11:30.442Z,95091.19
2023-01-08T00:13:58.086Z,95086.19
2023-01-08T00:16:25.819Z,95077.28
2023-01-08T00:18:53.483Z,95071.56
2023-01-08T00:21:21.646Z,95079.56
2023-01-08T00:23:52.320Z,95077.94
2023-01-08T00:26:20.013Z,95067.50
2023-01-08T00:28:49.045Z,95057.53
2023-01-08T00:31:16.797Z,95061.00
2023-01-08T00:33:46.442Z,95059.94
2023-01-08T00:36:16.868Z,95057.94
2023-01-08T00:38:45.447Z,95052.50
2023-01-08T00:41:14.850Z,95046.78
2023-01-08T00:43:42.569Z,95050.84
2023-01-08T00:46:11.667Z,95048.41
2023-01-08T00:48:39.603Z,95040.66
2023-01-08T00:51:09.153Z,95036.38
2023-01-08T00:53:37.913Z,95026.16
2023-01-08T00:56:07.690Z,95025.34
2023-01-08T00:58:35.900Z,95017.69
2023-01-08T01:01:04.023Z,95017.91
2023-01-08T01:03:33.404Z,95014.66
2023-01-08T01:06:02.197Z,95007.72
2023-01-08T01:08:29.935Z,95012.22
2023-01-08T01:10:58.503Z,95011.41
2023-01-08T01:13:26.227Z,95014.28
2023-01-08T01:16:03.777Z,95025.75
2023-01-08T01:18:33.546Z,95029.66
2023-01-08T01:21:01.275Z,95039.72
2023-01-08T01:23:30.063Z,95039.94
2023-01-08T01:25:57.713Z,95050.34
2023-01-08T01:28:25.403Z,95043.78
2023-01-08T01:30:56.932Z,95046.50
2023-01-08T01:33:24.954Z,95040.84
2023-01-08T01:36:02.177Z,95038.03
2023-01-08T01:38:30.217Z,95044.81
2023-01-08T01:40:58.068Z,95038.69
2023-01-08T01:43:37.233Z,95043.13
2023-01-08T01:46:05.945Z,95034.72
2023-01-08T01:48:33.692Z,95026.03
2023-01-08T01:51:03.421Z,95029.50
2023-01-08T01:53:35.872Z,95031.56
2023-01-08T01:56:05.543Z,95035.53
2023-01-08T01:58:33.798Z,95035.16
2023-01-08T02:01:05.145Z,95021.63
2023-01-08T02:03:35.681Z,95016.97
2023-01-08T02:06:16.204Z,95012.91
2023-01-08T02:08:53.521Z,95012.69
2023-01-08T02:11:27.512Z,95008.00
2023-01-08T02:14:01.590Z,95016.22
2023-01-08T02:16:36.170Z,95012.31
2023-01-08T02:19:08.834Z,95002.56
2023-01-08T02:21:59.327Z,95008.56
2023-01-08T02:24:41.031Z,94993.03
2023-01-08T02:27:10.444Z,94989.78
2023-01-08T02:29:38.301Z,94983.06
2023-01-08T02:32:11.252Z,94980.06
2023-01-08T02:34:38.934Z,94980.78
2023-01-08T02:37:06.849Z,94974.25
2023-01-08T02:39:57.603Z,94978.41
2023-01-08T02:42:35.413Z,94986.69
2023-01-08T02:45:10.220Z,94984.19
2023-01-08T02:47:43.068Z,94973.16
2023-01-08T02:50:16.987Z,94975.66
2023-01-08T02:52:53.550Z,94977.72
2023-01-08T02:55:24.261Z,94977.00
2023-01-08T02:57:54.157Z,94979.69
2023-01-08T03:00:22.915Z,94972.50
2023-01-08T03:02:52.934Z,94985.72
2023-01-08T03:05:24.892Z,94975.88
2023-01-08T03:07:53.013Z,94969.41
2023-01-08T03:10:23.912Z,94968.94
2023-01-08T03:12:56.977Z,94958.41
2023-01-08T03:15:32.996Z,94954.34
2023-01-08T03:18:08.328Z,94953.75
2023-01-08T03:20:37.049Z,94953.75
2023-01-08T03:23:07.858Z,94944.75
2023-01-08T03:25:40.576Z,94934.16
2023-01-08T03:28:13.025Z,94942.56
2023-01-08T03:30:45.219Z,94943.66
2023-01-08T03:33:14.764Z,94936.00
2023-01-08T03:35:44.750Z,94942.13
2023-01-08T03:38:16.745Z,94932.75
2023-01-08T03:40:48.678Z,94928.50
2023-01-08T03:43:17.761Z,94923.41
2023-01-08T03:45:51.571Z,94911.97
2023-01-08T03:48:21.319Z,94916.09
2023-01-08T03:50:49.099Z,94910.56
2023-01-08T03:53:16.882Z,94908.94
2023-01-08T03:55:44.579Z,94901.78
2023-01-08T03:58:12.248Z,94903.03
2023-01-08T04:00:41.275Z,94892.53
2023-01-08T04:03:09.578Z,94888.03
2023-01-08T04:05:37.316Z,94891.81
2023-01-08T04:08:05.204Z,94890.03
2023-01-08T04:10:32.907Z,94891.66
2023-01-08T04:13:00.608Z,94894.91
2023-01-08T04:15:28.313Z,94888.91
2023-01-08T04:17:57.364Z,94879.69
2023-01-08T04:20:25.025Z,94872.91
2023-01-08T04:22:52.659Z,94879.25
2023-01-08T04:25:20.338Z,94884.47
2023-01-08T04:27:48.026Z,94880.94
2023-01-08T04:30:15.712Z,94877.09
2023-01-08T04:32:43.521Z,94881.75
2023-01-08T04:35:12.530Z,94873.53
2023-01-08T04:37:40.222Z,94872.72
2023-01-08T04:40:08.903Z,94870.66
2023-01-08T04:42:36.572Z,94866.00
2023-01-08T04:45:04.497Z,94868.53
2023-01-08T04:47:32.153Z,94863.91
2023-01-08T04:49:59.836Z,94856.97
2023-01-08T04:52:31.368Z,94859.63
2023-01-08T04:54:59.001Z,94857.28
2023-01-08T04:57:26.763Z,94846.66
2023-01-08T04:59:54.433Z,94841.56
2023-01-08T05:02:22.294Z,94847.69
2023-01-08T05:04:50.026Z,94855.44
2023-01-08T05:07:17.744Z,94844.38
2023-01-08T05:09:46.799Z,94851.75
2023-01-08T05:12:14.457Z,94844.81
2023-01-08T05:14:42.108Z,94851.31
2023-01-08T05:17:12.685Z,94849.69
2023-01-08T05:19:40.376Z,94840.00
2023-01-08T05:22:08.095Z,94837.34
2023-01-08T05:24:36.155Z,94841.28
2023-01-08T05:27:05.333Z,94829.47
2023-01-08T05:29:33.011Z,94822.53
2023-01-08T05:32:00.667Z,94828.44
2023-01-08T05:34:28.577Z,94823.31
2023-01-08T05:36:56.239Z,94828.78
2023-01-08T05:39:24.336Z,94824.94
2023-01-08T05:41:51.983Z,94827.75
2023-01-08T05:44:20.989Z,94835.50
2023-01-08T05:46:48.828Z,94830.78
2023-01-08T05:49:17.038Z,94821.66
2023-01-08T05:51:44.764Z,94818.63
2023-01-08T05:54:13.990Z,94817.59
2023-01-08T05:56:43.861Z,94811.47
2023-01-08T05:59:12.044Z,94819.22
2023-01-08T06:01:41.379Z,94819.22
2023-01-08T06:04:09.335Z,94825.56
2023-01-08T06:06:36.994Z,94832.06
2023-01-08T06:09:05.036Z,94830.59
2023-01-08T06:11:32.627Z,94829.09
2023-01-08T06:14:00.254Z,94834.31
2023-01-08T06:16:27.959Z,94838.16
2023-01-08T06:18:59.838Z,94840.34
2023-01-08T06:21:27.530Z,94828.69
2023-01-08T06:23:55.207Z,94841.03
2023-01-08T06:26:22.862Z,94834.09
2023-01-08T06:28:50.514Z,94827.50
2023-01-08T06:31:18.170Z,94825.22
2023-01-08T06:33:45.911Z,94831.94
2023-01-08T06:36:14.876Z,94842.13
2023-01-08T06:38:42.556Z,94835.88
2023-01-08T06:41:11.547Z,94840.16
2023-01-08T06:43:39.873Z,94845.69
2023-01-08T06:46:08.969Z,94838.53
2023-01-08T06:48:37.100Z,94827.06
2023-01-08T06:51:06.040Z,94817.81
2023-01-08T06:53:35.375Z,94823.06
2023-01-08T06:56:04.220Z,94837.63
2023-01-08T06:58:31.890Z,94843.41
2023-01-08T07:00:59.615Z,94848.50
2023-01-08T07:03:28.471Z,94859.50
2023-01-08T07:05:56.207Z,94852.91
2023-01-08T07:08:24.458Z,94848.72
2023-01-08T07:10:53.469Z,94844.94
2023-01-08T07:13:22.693Z,94850.19
2023-01-08T07:15:50.550Z,94849.59
2023-01-08T07:18:18.229Z,94852.38
2023-01-08T07:20:46.018Z,94855.28
2023-01-08T07:23:16.441Z,94853.06
2023-01-08T07:25:44.077Z,94854.47
2023-01-08T07:28:13.694Z,94850.75
2023-01-08T07:30:41.373Z,94846.84
2023-01-08T07:33:09.091Z,94845.22
2023-01-08T07:35:38.310Z,94850.53
2023-01-08T07:38:06.464Z,94849.25
2023-01-08T07:40:34.128Z,94846.47
2023-01-08T07:43:03.783Z,94835.25
2023-01-08T07:45:33.738Z,94852.63
2023-01-08T07:48:01.508Z,94848.91
2023-01-08T07:50:29.384Z,94844.72
2023-01-08T07:52:58.764Z,94837.66
2023-01-08T07:55:26.853Z,94832.00
2023-01-08T07:57:54.540Z,94844.84
2023-01-08T08:00:22.457Z,94841.59
2023-01-08T08:02:51.537Z,94835.56
2023-01-08T08:05:19.386Z,94833.09
2023-01-08T08:07:47.072Z,94830.75
2023-01-08T08:10:14.736Z,94826.59
2023-01-08T08:12:45.155Z,94833.63
2023-01-08T08:15:12.850Z,94827.78
2023-01-08T08:17:40.617Z,94819.97
2023-01-08T08:20:10.764Z,94824.78
2023-01-08T08:22:38.459Z,94826.28
2023-01-08T08:25:06.755Z,94834.56
2023-01-08T08:27:34.454Z,94824.38
2023-01-08T08:30:02.153Z,94835.53
2023-01-08T08:32:29.905Z,94828.34
2023-01-08T08:34:57.572Z,94818.69
2023-01-08T08:37:26.598Z,94824.47
2023-01-08T08:39:54.285Z,94828.16
2023-01-08T08:42:22.145Z,94829.84
2023-01-08T08:44:49.956Z,94825.84
2023-01-08T08:47:17.643Z,94829.00
2023-01-08T08:49:47.332Z,94837.09
2023-01-08T08:52:15.056Z,94844.75
2023-01-08T08:54:44.054Z,94830.94
2023-01-08T08:57:12.026Z,94829.44
2023-01-08T08:59:39.686Z,94816.59
2023-01-08T09:02:08.500Z,94824.41
2023-01-08T09:04:38.272Z,94817.09
2023-01-08T09:07:06.026Z,94831.69
2023-01-08T09:09:33.703Z,94829.31
2023-01-08T09:12:02.739Z,94837.88
2023-01-08T09:14:30.431Z,94827.41
2023-01-08T09:16:58.104Z,94832.09
2023-01-08T09:19:25.799Z,94833.75
2023-01-08T09:21:53.457Z,94831.81
2023-01-08T09:24:21.509Z,94823.44
2023-01-08T09:26:49.191Z,94815.19
2023-01-08T09:29:18.247Z,94827.09
2023-01-08T09:31:46.688Z,94822.56
2023-01-08T09:34:14.438Z,94813.72
2023-01-08T09:36:42.099Z,94811.84
2023-01-08T09:39:10.324Z,94822.88
2023-01-08T09:41:42.010Z,94818.81
2023-01-08T09:44:16.282Z,94814.25
2023-01-08T09:46:46.461Z,94820.44
2023-01-08T09:49:17.701Z,94813.97
2023-01-08T09:51:45.382Z,94808.84
2023-01-08T09:54:17.594Z,94798.03
2023-01-08T09:56:45.895Z,94789.63
2023-01-08T09:59:17.713Z,94774.72
2023-01-08T10:01:48.070Z,94764.72
2023-01-08T10:04:18.138Z,94767.81
2023-01-08T10:06:51.907Z,94770.69
2023-01-08T10:09:25.204Z,94766.72
2023-01-08T10:11:55.213Z,94762.63
2023-01-08T10:14:26.141Z,94755.75
2023-01-08T10:16:59.452Z,94752.19
2023-01-08T10:19:27.320Z,94756.94
2023-01-08T10:21:55.477Z,94759.78
2023-01-08T10:24:33.186Z,94771.78
2023-01-08T10:27:08.057Z,94769.13
2023-01-08T10:29:35.739Z,94771.13
2023-01-08T10:32:12.080Z,94762.56
2023-01-08T10:34:46.800Z,94757.22
2023-01-08T10:37:17.471Z,94752.44
2023-01-08T10:39:48.021Z,94736.59
2023-01-08T10:42:20.021Z,94742.16
2023-01-08T10:44:58.053Z,94737.59
2023-01-08T10:47:31.418Z,94743.69
2023-01-08T10:50:00.722Z,94749.91
2023-01-08T10:52:32.647Z,94751.22
2023-01-08T10:55:12.784Z,94750.56
2023-01-08T10:57:42.402Z,94757.91
2023-01-08T11:00:24.872Z,94740.66
2023-01-08T11:02:53.931Z,94745.63
2023-01-08T11:05:30.874Z,94749.97
2023-01-08T11:08:00.734Z,94753.00
2023-01-08T11:10:32.403Z,94745.88
2023-01-08T11:13:04.168Z,94744.47
2023-01-08T11:15:35.232Z,94756.13
2023-01-08T11:18:19.769Z,94759.97
2023-01-08T11:20:47.962Z,94748.09
2023-01-08T11:23:19.463Z,94744.75
2023-01-08T11:25:53.442Z,94732.78
2023-01-08T11:28:28.057Z,94717.78
2023-01-08T11:31:02.668Z,94693.88
2023-01-08T11:33:33.935Z,94678.63
2023-01-08T11:36:09.110Z,94681.13
2023-01-08T11:38:36.792Z,94674.84
2023-01-08T11:41:18.983Z,94668.31
2023-01-08T11:44:05.938Z,94677.59
2023-01-08T11:46:42.812Z,94666.13
2023-01-08T11:49:30.436Z,94662.50
2023-01-08T11:52:11.587Z,94651.91
2023-01-08T11:54:56.950Z,94648.41
2023-01-08T11:57:39.856Z,94645.38
2023-01-08T12:00:28.102Z,94641.88
2023-01-08T12:02:57.974Z,94647.34
2023-01-08T12:05:39.524Z,94644.03
2023-01-08T12:08:12.412Z,94647.97
2023-01-08T12:10:52.441Z,94643.13
2023-01-08T12:13:31.794Z,94651.94
2023-01-08T12:16:20.026Z,94647.81
2023-01-08T12:19:11.549Z,94649.41
2023-01-08T12:21:54.255Z,94640.34
2023-01-08T12:24:51.965Z,94632.75
2023-01-08T12:27:54.659Z,94642.63
2023-01-08T12:30:25.548Z,94640.44
2023-01-08T12:32:59.320Z,94637.78
2023-01-08T12:35:30.190Z,94637.00
2023-01-08T12:38:06.171Z,94626.97
2023-01-08T12:40:36.729Z,94627.03
2023-01-08T12:43:10.211Z,94622.19
2023-01-08T12:45:42.068Z,94615.16
2023-01-08T12:48:15.771Z,94605.22
2023-01-08T12:50:54.535Z,94605.75
2023-01-08T12:53:36.030Z,94586.84
2023-01-08T12:56:12.159Z,94594.31
2023-01-08T12:58:52.120Z,94580.56
2023-01-08T13:01:31.383Z,94568.16
2023-01-08T13:04:01.108Z,94558.66
2023-01-08T13:06:28.901Z,94557.56
2023-01-08T13:09:01.725Z,94558.06
2023-01-08T13:11:31.934Z,94553.47
2023-01-08T13:14:02.273Z,94546.38
2023-01-08T13:16:31.788Z,94539.09
2023-01-08T13:19:01.467Z,94543.38
2023-01-08T13:21:35.398Z,94537.75
2023-01-08T13:24:38.434Z,94536.00
2023-01-08T13:27:27.669Z,94528.59
2023-01-08T13:29:57.873Z,94530.28
2023-01-08T13:32:28.478Z,94521.66
2023-01-08T13:35:18.794Z,94517.06
2023-01-08T13:37:49.901Z,94515.94
2023-01-08T13:40:38.244Z,94516.97
2023-01-08T13:43:12.534Z,94519.16
2023-01-08T13:45:40.785Z,94534.22
2023-01-08T13:48:22.540Z,94527.91
2023-01-08T13:50:50.905Z,94528.09
2023-01-08T13:53:20.001Z,94532.69
2023-01-08T13:55:56.914Z,94527.84
2023-01-08T13:58:29.033Z,94519.53
2023-01-08T14:00:59.378Z,94519.06
2023-01-08T14:03:28.784Z,94518.59
2023-01-08T14:06:07.236Z,94513.56
2023-01-08T14:08:35.366Z,94517.47
2023-01-08T14:11:06.105Z,94519.13
2023-01-08T14:13:35.691Z,94515.41
2023-01-08T14:16:06.703Z,94518.69
2023-01-08T14:18:35.167Z,94519.56
2023-01-08T14:21:03.899Z,94527.16
2023-01-08T14:23:35.742Z,94537.75
2023-01-08T14:26:08.545Z,94536.66
2023-01-08T14:28:36.672Z,94530.72
2023-01-08T14:31:07.314Z,94528.91
2023-01-08T14:33:36.707Z,94542.53
2023-01-08T14:36:08.436Z,94546.16
2023-01-08T14:38:36.207Z,94553.53
2023-01-08T14:41:09.104Z,94549.28
2023-01-08T14:43:42.933Z,94543.59
2023-01-08T14:46:21.056Z,94531.19
2023-01-08T14:48:50.376Z,94524.53
2023-01-08T14:51:23.408Z,94528.41
2023-01-08T14:53:54.831Z,94531.09
2023-01-08T14:56:28.191Z,94518.13
2023-01-08T14:58:58.107Z,94512.50
2023-01-08T15:01:28.836Z,94514.69
2023-01-08T15:04:07.657Z,94515.25
2023-01-08T15:06:36.050Z,94509.84
2023-01-08T15:09:03.793Z,94511.19
2023-01-08T15:11:33.522Z,94503.03
2023-01-08T15:14:01.462Z,94514.63
2023-01-08T15:16:32.778Z,94501.41
2023-01-08T15:19:07.019Z,94481.16
2023-01-08T15:21:35.831Z,94474.78
2023-01-08T15:24:05.579Z,94472.75
2023-01-08T15:26:34.955Z,94471.47
2023-01-08T15:29:06.033Z,94473.50
2023-01-08T15:31:46.482Z,94465.00
2023-01-08T15:34:14.258Z,94472.69
2023-01-08T15:36:41.981Z,94468.75
2023-01-08T15:39:12.059Z,94470.72
2023-01-08T15:41:58.944Z,94484.31
2023-01-08T15:44:27.102Z,94483.81
2023-01-08T15:46:55.171Z,94476.06
2023-01-08T15:49:22.879Z,94471.22
2023-01-08T15:51:53.066Z,94465.06
2023-01-08T15:54:24.167Z,94462.13
2023-01-08T15:56:53.196Z,94464.09
2023-01-08T15:59:20.896Z,94478.91
2023-01-08T16:01:49.081Z,94485.38
2023-01-08T16:04:16.846Z,94479.75
2023-01-08T16:06:44.563Z,94476.34
2023-01-08T16:09:12.220Z,94471.31
2023-01-08T16:11:39.910Z,94469.25
2023-01-08T16:14:08.952Z,94463.16
2023-01-08T16:16:36.661Z,94455.13
2023-01-08T16:19:04.340Z,94460.03
2023-01-08T16:21:32.263Z,94457.38
2023-01-08T16:23:59.961Z,94452.34
2023-01-08T16:26:27.704Z,94443.53
2023-01-08T16:28:55.341Z,94437.66
2023-01-08T16:31:24.416Z,94427.25
2023-01-08T16:33:52.066Z,94427.03
2023-01-08T16:36:23.112Z,94421.72
2023-01-08T16:38:50.821Z,94413.19
2023-01-08T16:41:18.514Z,94404.34
2023-01-08T16:43:46.278Z,94395.25
2023-01-08T16:46:19.119Z,94393.91
2023-01-08T16:48:48.563Z,94400.38
2023-01-08T16:51:16.739Z,94397.69
2023-01-08T16:53:44.770Z,94382.97
2023-01-08T16:56:12.473Z,94382.97
2023-01-08T16:58:40.152Z,94377.34
2023-01-08T17:01:12.293Z,94381.66
2023-01-08T17:03:42.406Z,94375.47
2023-01-08T17:06:13.031Z,94371.47
2023-01-08T17:08:42.232Z,94364.75
2023-01-08T17:11:10.968Z,94355.09
2023-01-08T17:13:39.425Z,94359.09
2023-01-08T17:16:09.042Z,94350.53
2023-01-08T17:18:37.158Z,94356.41
2023-01-08T17:21:05.123Z,94352.13
2023-01-08T17:23:34.490Z,94362.00
2023-01-08T17:26:04.173Z,94358.25
2023-01-08T17:28:32.131Z,94361.19
2023-01-08T17:31:03.103Z,94360.38
2023-01-08T17:33:30.850Z,94347.78
2023-01-08T17:35:58.878Z,94344.84
2023-01-08T17:38:28.780Z,94346.47
2023-01-08T17:41:01.339Z,94351.00
2023-01-08T17:43:29.074Z,94355.56
2023-01-08T17:45:56.787Z,94349.16
2023-01-08T17:48:24.474Z,94347.81
2023-01-08T17:50:52.168Z,94342.75
2023-01-08T17:53:19.847Z,94344.88
2023-01-08T17:55:47.664Z,94341.94
2023-01-08T17:58:16.795Z,94326.66
2023-01-08T18:00:44.462Z,94321.84
2023-01-08T18:03:12.243Z,94313.00
2023-01-08T18:05:39.943Z,94318.63
2023-01-08T18:08:07.657Z,94297.72
2023-01-08T18:10:35.335Z,94299.06
2023-01-08T18:13:03.046Z,94284.09
2023-01-08T18:15:33.361Z,94279.28
2023-01-08T18:18:01.974Z,94268.00
2023-01-08T18:20:30.005Z,94263.44
2023-01-08T18:22:58.020Z,94272.28
2023-01-08T18:25:25.728Z,94265.06
2023-01-08T18:27:54.680Z,94259.16
2023-01-08T18:30:23.143Z,94261.84
2023-01-08T18:32:52.339Z,94269.38
2023-01-08T18:35:19.995Z,94265.06
2023-01-08T18:37:47.680Z,94251.94
2023-01-08T18:40:15.457Z,94253.03
2023-01-08T18:42:43.145Z,94252.50
2023-01-08T18:45:13.541Z,94247.13
2023-01-08T18:47:41.221Z,94254.38
2023-01-08T18:50:11.592Z,94241.78
2023-01-08T18:52:41.287Z,94234.00
2023-01-08T18:55:09.419Z,94227.31
2023-01-08T18:57:37.204Z,94217.41
2023-01-08T19:00:06.322Z,94222.19
2023-01-08T19:02:34.472Z,94216.31
2023-01-08T19:05:02.511Z,94206.13
2023-01-08T19:07:32.692Z,94205.34
2023-01-08T19:10:01.213Z,94200.75
2023-01-08T19:12:32.018Z,94201.56
2023-01-08T19:14:59.903Z,94208.53
2023-01-08T19:17:30.236Z,94193.78
2023-01-08T19:20:00.788Z,94188.44
2023-01-08T19:22:29.576Z,94196.22
2023-01-08T19:24:59.161Z,94181.75
2023-01-08T19:27:27.572Z,94179.31
2023-01-08T19:29:55.323Z,94177.19
2023-01-08T19:32:23.093Z,94175.31
2023-01-08T19:34:50.776Z,94170.22
2023-01-08T19:37:18.462Z,94152.25
2023-01-08T19:39:46.249Z,94148.78
2023-01-08T19:42:32.739Z,94133.50
2023-01-08T19:45:00.451Z,94117.72
2023-01-08T19:47:28.177Z,94123.59
2023-01-08T19:49:55.886Z,94119.03
2023-01-08T19:52:23.759Z,94117.44
2023-01-08T19:54:51.557Z,94108.88
2023-01-08T19:57:20.643Z,94104.31
2023-01-08T19:59:48.447Z,94083.94
2023-01-08T20:02:16.337Z,94081.81
2023-01-08T20:04:44.476Z,94089.56
2023-01-08T20:07:12.919Z,94098.16
2023-01-08T20:09:41.762Z,94103.50
2023-01-08T20:12:09.768Z,94093.06
2023-01-08T20:14:39.206Z,94088.78
2023-01-08T20:17:06.973Z,94079.72
2023-01-08T20:19:34.814Z,94074.63
2023-01-08T20:22:02.644Z,94087.50
2023-01-08T20:24:30.631Z,94088.31
2023-01-08T20:26:58.335Z,94089.94
2023-01-08T20:29:27.227Z,94085.88
2023-01-08T20:31:59.355Z,94083.19
2023-01-08T20:34:27.981Z,94088.81
2023-01-08T20:36:56.351Z,94077.84
2023-01-08T20:39:24.272Z,94072.75
2023-01-08T20:42:01.232Z,94077.56
2023-01-08T20:44:31.850Z,94079.66
2023-01-08T20:47:01.530Z,94074.31
2023-01-08T20:49:29.730Z,94077.53
2023-01-08T20:51:59.535Z,94072.41
2023-01-08T20:54:28.268Z,94076.44
2023-01-08T20:56:56.483Z,94076.13
2023-01-08T20:59:24.465Z,94073.16
2023-01-08T21:01:54.818Z,94076.38
2023-01-08T21:04:24.755Z,94070.75
2023-01-08T21:06:52.549Z,94068.63
2023-01-08T21:09:20.294Z,94067.00
2023-01-08T21:11:48.128Z,94081.94
2023-01-08T21:14:15.822Z,94074.69
2023-01-08T21:16:43.737Z,94069.59
2023-01-08T21:19:11.674Z,94062.84
2023-01-08T21:21:41.187Z,94061.72
2023-01-08T21:24:10.737Z,94060.38
2023-01-08T21:26:39.141Z,94059.03
2023-01-08T21:29:08.118Z,94046.44
2023-01-08T21:31:36.689Z,94041.84
2023-01-08T21:34:06.135Z,94042.63
2023-01-08T21:36:34.119Z,94047.75
2023-01-08T21:39:03.360Z,94046.44
2023-01-08T21:41:49.411Z,94035.69
2023-01-08T21:44:35.783Z,94035.16
2023-01-08T21:47:05.665Z,94032.69
2023-01-08T21:49:35.814Z,94035.34
2023-01-08T21:52:21.406Z,94030.22
2023-01-08T21:54:50.816Z,94026.19
2023-01-08T21:57:18.655Z,94028.53
2023-01-08T21:59:46.422Z,94012.38
2023-01-08T22:02:16.057Z,94008.91
2023-01-08T22:04:44.531Z,94009.44
2023-01-08T22:07:12.735Z,94014.72
2023-01-08T22:09:40.618Z,94023.88
2023-01-08T22:12:09.889Z,94021.69
2023-01-08T22:14:37.866Z,94010.69
2023-01-08T22:17:08.329Z,94012.03
2023-01-08T22:19:36.146Z,94002.09
2023-01-08T22:22:03.846Z,93996.75
2023-01-08T22:24:32.212Z,93997.53
2023-01-08T22:26:59.974Z,93980.38
2023-01-08T22:29:29.307Z,93949.53
2023-01-08T22:31:57.042Z,93939.31
2023-01-08T22:34:26.720Z,93935.50
2023-01-08T22:36:54.418Z,93922.31
2023-01-08T22:39:22.165Z,93919.38
2023-01-08T22:41:49.946Z,93901.13
2023-01-08T22:44:17.647Z,93908.63
2023-01-08T22:46:46.769Z,93894.84
2023-01-08T22:49:14.837Z,93887.84
2023-01-08T22:51:43.448Z,93882.19
2023-01-08T22:54:13.429Z,93873.34
2023-01-08T23:02:24.437Z,93875.50
2023-01-08T23:04:53.056Z,93875.78
2023-01-08T23:07:21.772Z,93871.78
2023-01-08T23:09:49.696Z,93862.72
2023-01-08T23:12:17.392Z,93861.91
2023-01-08T23:14:45.124Z,93867.56
2023-01-08T23:17:12.833Z,93860.88
2023-01-08T23:19:41.960Z,93856.09
2023-01-08T23:22:09.647Z,93849.63
2023-01-08T23:24:37.317Z,93835.97
2023-01-08T23:27:04.984Z,93829.53
2023-01-08T23:29:35.105Z,93838.66
2023-01-08T23:32:02.888Z,93835.97
2023-01-08T23:34:30.666Z,93837.63
2023-01-08T23:36:59.667Z,93838.22
2023-01-08T23:39:28.187Z,93840.66
2023-01-08T23:41:57.998Z,93836.16
2023-01-08T23:44:25.716Z,93838.41
2023-01-08T23:46:56.424Z,93843.50
2023-01-08T23:49:24.165Z,93839.50
2023-01-08T23:51:52.024Z,93845.13
2023-01-08T23:54:21.093Z,93840.56
2023-01-08T23:56:49.008Z,93844.84
2023-01-08T23:59:17.002Z,93847.00
